sensor_id;sensor_type;location;lat;lon;timestamp;temperature;humidity
1958;DHT22;979;51.076;13.748;2023-11-19T00:01:01;7.80;68.60
1958;DHT22;979;51.076;13.748;2023-11-19T00:03:59;7.80;68.70
1958;DHT22;979;51.076;13.748;2023-11-19T00:06:35;7.80;69.00
1958;DHT22;979;51.076;13.748;2023-11-19T00:09:37;7.70;69.20
1958;DHT22;979;51.076;13.748;2023-11-19T00:12:23;7.70;69.30
1958;DHT22;979;51.076;13.748;2023-11-19T00:15:02;7.70;69.60
1958;DHT22;979;51.076;13.748;2023-11-19T00:17:53;7.60;69.30
1958;DHT22;979;51.076;13.748;2023-11-19T00:20:36;7.60;69.40
1958;DHT22;979;51.076;13.748;2023-11-19T00:23:18;7.60;69.20
1958;DHT22;979;51.076;13.748;2023-11-19T00:26:10;7.60;69.70
1958;DHT22;979;51.076;13.748;2023-11-19T00:40:29;7.40;69.40
1958;DHT22;979;51.076;13.748;2023-11-19T01:12:45;7.10;70.70
1958;DHT22;979;51.076;13.748;2023-11-19T01:15:14;7.10;70.20
1958;DHT22;979;51.076;13.748;2023-11-19T01:17:45;7.10;70.30
1958;DHT22;979;51.076;13.748;2023-11-19T01:20:16;7.10;70.50
1958;DHT22;979;51.076;13.748;2023-11-19T01:22:45;7.10;70.50
1958;DHT22;979;51.076;13.748;2023-11-19T01:25:17;7.10;70.50
1958;DHT22;979;51.076;13.748;2023-11-19T01:27:47;7.10;70.40
1958;DHT22;979;51.076;13.748;2023-11-19T01:30:15;7.10;70.40
1958;DHT22;979;51.076;13.748;2023-11-19T01:32:44;7.20;70.70
1958;DHT22;979;51.076;13.748;2023-11-19T01:35:12;7.20;70.60
1958;DHT22;979;51.076;13.748;2023-11-19T01:37:43;7.20;70.50
1958;DHT22;979;51.076;13.748;2023-11-19T01:40:13;7.30;70.70
1958;DHT22;979;51.076;13.748;2023-11-19T01:42:51;7.30;70.60
1958;DHT22;979;51.076;13.748;2023-11-19T01:45:31;7.40;70.90
1958;DHT22;979;51.076;13.748;2023-11-19T01:48:25;7.50;70.90
1958;DHT22;979;51.076;13.748;2023-11-19T01:51:09;7.40;70.40
1958;DHT22;979;51.076;13.748;2023-11-19T01:53:38;7.50;70.60
1958;DHT22;979;51.076;13.748;2023-11-19T01:56:08;7.50;71.30
1958;DHT22;979;51.076;13.748;2023-11-19T01:58:40;7.50;70.50
1958;DHT22;979;51.076;13.748;2023-11-19T02:01:09;7.60;70.50
1958;DHT22;979;51.076;13.748;2023-11-19T02:03:40;7.60;70.60
1958;DHT22;979;51.076;13.748;2023-11-19T02:06:08;7.70;70.60
1958;DHT22;979;51.076;13.748;2023-11-19T02:08:38;7.70;70.60
1958;DHT22;979;51.076;13.748;2023-11-19T02:11:07;7.70;70.60
1958;DHT22;979;51.076;13.748;2023-11-19T02:13:38;7.70;70.60
1958;DHT22;979;51.076;13.748;2023-11-19T02:16:08;7.80;70.60
1958;DHT22;979;51.076;13.748;2023-11-19T02:18:38;7.80;70.70
1958;DHT22;979;51.076;13.748;2023-11-19T02:21:06;7.80;70.60
1958;DHT22;979;51.076;13.748;2023-11-19T02:23:37;7.80;70.60
1958;DHT22;979;51.076;13.748;2023-11-19T02:26:14;7.80;70.60
1958;DHT22;979;51.076;13.748;2023-11-19T02:28:44;7.80;70.60
1958;DHT22;979;51.076;13.748;2023-11-19T02:31:20;7.80;70.60
1958;DHT22;979;51.076;13.748;2023-11-19T02:33:50;8.10;71.00
1958;DHT22;979;51.076;13.748;2023-11-19T02:36:19;8.00;70.90
1958;DHT22;979;51.076;13.748;2023-11-19T02:38:48;7.80;70.80
1958;DHT22;979;51.076;13.748;2023-11-19T02:41:16;7.90;70.90
1958;DHT22;979;51.076;13.748;2023-11-19T02:43:46;7.90;71.00
1958;DHT22;979;51.076;13.748;2023-11-19T02:46:15;7.80;70.90
1958;DHT22;979;51.076;13.748;2023-11-19T02:48:53;7.80;70.90
1958;DHT22;979;51.076;13.748;2023-11-19T02:51:35;7.90;71.40
1958;DHT22;979;51.076;13.748;2023-11-19T02:54:13;7.70;71.00
1958;DHT22;979;51.076;13.748;2023-11-19T02:56:59;7.90;71.30
1958;DHT22;979;51.076;13.748;2023-11-19T02:59:39;8.00;71.60
1958;DHT22;979;51.076;13.748;2023-11-19T03:02:17;7.90;71.20
1958;DHT22;979;51.076;13.748;2023-11-19T03:04:46;7.90;71.20
1958;DHT22;979;51.076;13.748;2023-11-19T03:07:14;8.00;71.20
1958;DHT22;979;51.076;13.748;2023-11-19T03:09:42;8.10;71.30
1958;DHT22;979;51.076;13.748;2023-11-19T03:12:11;8.20;71.30
1958;DHT22;979;51.076;13.748;2023-11-19T03:14:40;8.00;71.20
1958;DHT22;979;51.076;13.748;2023-11-19T03:17:09;8.00;71.20
1958;DHT22;979;51.076;13.748;2023-11-19T03:19:37;8.10;71.30
1958;DHT22;979;51.076;13.748;2023-11-19T03:22:05;8.10;71.30
1958;DHT22;979;51.076;13.748;2023-11-19T03:24:34;8.10;71.30
1958;DHT22;979;51.076;13.748;2023-11-19T03:27:03;8.10;71.30
1958;DHT22;979;51.076;13.748;2023-11-19T03:29:31;8.10;71.20
1958;DHT22;979;51.076;13.748;2023-11-19T03:32:16;8.10;71.30
1958;DHT22;979;51.076;13.748;2023-11-19T03:35:08;8.20;71.70
1958;DHT22;979;51.076;13.748;2023-11-19T03:37:56;8.10;71.10
1958;DHT22;979;51.076;13.748;2023-11-19T03:40:33;8.20;71.20
1958;DHT22;979;51.076;13.748;2023-11-19T03:43:18;8.30;71.50
1958;DHT22;979;51.076;13.748;2023-11-19T03:45:57;8.20;71.10
1958;DHT22;979;51.076;13.748;2023-11-19T03:48:40;8.00;71.30
1958;DHT22;979;51.076;13.748;2023-11-19T03:51:21;8.20;71.50
1958;DHT22;979;51.076;13.748;2023-11-19T03:54:19;8.10;71.40
1958;DHT22;979;51.076;13.748;2023-11-19T03:57:09;8.30;71.80
1958;DHT22;979;51.076;13.748;2023-11-19T03:59:41;8.30;71.20
1958;DHT22;979;51.076;13.748;2023-11-19T04:02:09;8.30;71.30
1958;DHT22;979;51.076;13.748;2023-11-19T04:04:39;8.20;71.20
1958;DHT22;979;51.076;13.748;2023-11-19T04:07:07;8.20;71.30
1958;DHT22;979;51.076;13.748;2023-11-19T04:09:36;8.20;71.40
1958;DHT22;979;51.076;13.748;2023-11-19T04:12:05;8.20;71.30
1958;DHT22;979;51.076;13.748;2023-11-19T04:14:33;8.20;71.40
1958;DHT22;979;51.076;13.748;2023-11-19T04:17:02;8.20;71.50
1958;DHT22;979;51.076;13.748;2023-11-19T04:19:30;8.10;71.40
1958;DHT22;979;51.076;13.748;2023-11-19T04:22:04;8.20;72.30
1958;DHT22;979;51.076;13.748;2023-11-19T04:24:32;8.20;71.60
1958;DHT22;979;51.076;13.748;2023-11-19T04:27:00;8.20;71.60
1958;DHT22;979;51.076;13.748;2023-11-19T04:29:29;8.20;71.70
1958;DHT22;979;51.076;13.748;2023-11-19T04:31:57;8.20;71.60
1958;DHT22;979;51.076;13.748;2023-11-19T04:34:27;8.20;71.70
1958;DHT22;979;51.076;13.748;2023-11-19T04:36:56;8.40;71.80
1958;DHT22;979;51.076;13.748;2023-11-19T04:39:25;8.10;71.60
1958;DHT22;979;51.076;13.748;2023-11-19T04:42:01;8.10;71.80
1958;DHT22;979;51.076;13.748;2023-11-19T04:44:29;8.10;71.90
1958;DHT22;979;51.076;13.748;2023-11-19T04:46:57;8.30;72.20
1958;DHT22;979;51.076;13.748;2023-11-19T04:49:26;8.00;72.00
1958;DHT22;979;51.076;13.748;2023-11-19T04:51:55;7.90;72.90
1958;DHT22;979;51.076;13.748;2023-11-19T04:54:26;7.90;72.30
1958;DHT22;979;51.076;13.748;2023-11-19T04:56:55;7.80;72.40
1958;DHT22;979;51.076;13.748;2023-11-19T04:59:23;7.80;72.60
1958;DHT22;979;51.076;13.748;2023-11-19T05:01:53;7.70;72.60
1958;DHT22;979;51.076;13.748;2023-11-19T05:04:44;7.80;73.10
1958;DHT22;979;51.076;13.748;2023-11-19T05:07:17;7.70;72.90
1958;DHT22;979;51.076;13.748;2023-11-19T05:09:58;7.70;73.70
1958;DHT22;979;51.076;13.748;2023-11-19T05:12:50;7.60;73.50
1958;DHT22;979;51.076;13.748;2023-11-19T05:15:35;7.60;73.70
1958;DHT22;979;51.076;13.748;2023-11-19T05:18:13;7.70;73.80
1958;DHT22;979;51.076;13.748;2023-11-19T05:21:04;7.60;74.10
1958;DHT22;979;51.076;13.748;2023-11-19T05:23:45;7.50;74.00
1958;DHT22;979;51.076;13.748;2023-11-19T05:26:22;7.50;74.10
1958;DHT22;979;51.076;13.748;2023-11-19T05:28:51;7.50;73.90
1958;DHT22;979;51.076;13.748;2023-11-19T05:31:19;7.60;74.20
1958;DHT22;979;51.076;13.748;2023-11-19T05:33:47;7.40;74.10
1958;DHT22;979;51.076;13.748;2023-11-19T05:36:16;7.40;74.30
1958;DHT22;979;51.076;13.748;2023-11-19T05:38:46;7.40;74.40
1958;DHT22;979;51.076;13.748;2023-11-19T05:41:14;7.30;74.50
1958;DHT22;979;51.076;13.748;2023-11-19T05:43:44;7.30;74.70
1958;DHT22;979;51.076;13.748;2023-11-19T05:46:13;7.30;74.80
1958;DHT22;979;51.076;13.748;2023-11-19T05:48:46;7.30;75.00
1958;DHT22;979;51.076;13.748;2023-11-19T05:51:14;7.30;74.90
1958;DHT22;979;51.076;13.748;2023-11-19T05:53:43;7.40;75.00
1958;DHT22;979;51.076;13.748;2023-11-19T05:56:13;7.30;75.10
1958;DHT22;979;51.076;13.748;2023-11-19T05:58:44;7.50;75.30
1958;DHT22;979;51.076;13.748;2023-11-19T06:01:15;7.30;75.30
1958;DHT22;979;51.076;13.748;2023-11-19T06:03:43;7.30;75.40
1958;DHT22;979;51.076;13.748;2023-11-19T06:06:16;7.30;75.50
1958;DHT22;979;51.076;13.748;2023-11-19T06:08:44;7.40;75.50
1958;DHT22;979;51.076;13.748;2023-11-19T06:11:16;7.30;75.50
1958;DHT22;979;51.076;13.748;2023-11-19T06:13:51;7.30;75.50
1958;DHT22;979;51.076;13.748;2023-11-19T06:16:19;7.30;75.50
1958;DHT22;979;51.076;13.748;2023-11-19T06:18:47;7.30;75.60
1958;DHT22;979;51.076;13.748;2023-11-19T06:21:16;7.30;75.90
1958;DHT22;979;51.076;13.748;2023-11-19T06:23:46;7.40;75.90
1958;DHT22;979;51.076;13.748;2023-11-19T06:26:16;7.60;76.10
1958;DHT22;979;51.076;13.748;2023-11-19T06:28:44;7.40;75.90
1958;DHT22;979;51.076;13.748;2023-11-19T06:31:15;7.40;75.90
1958;DHT22;979;51.076;13.748;2023-11-19T06:33:43;7.50;76.00
1958;DHT22;979;51.076;13.748;2023-11-19T06:36:14;7.50;76.20
1958;DHT22;979;51.076;13.748;2023-11-19T06:38:44;7.50;76.30
1958;DHT22;979;51.076;13.748;2023-11-19T06:41:14;7.60;76.30
1958;DHT22;979;51.076;13.748;2023-11-19T06:43:43;7.70;76.40
1958;DHT22;979;51.076;13.748;2023-11-19T06:46:18;7.70;76.40
1958;DHT22;979;51.076;13.748;2023-11-19T06:48:49;7.80;76.50
1958;DHT22;979;51.076;13.748;2023-11-19T06:51:17;7.80;76.40
1958;DHT22;979;51.076;13.748;2023-11-19T06:53:47;7.90;76.50
1958;DHT22;979;51.076;13.748;2023-11-19T06:56:26;8.00;76.90
1958;DHT22;979;51.076;13.748;2023-11-19T06:58:54;8.10;76.60
1958;DHT22;979;51.076;13.748;2023-11-19T07:01:24;8.10;76.60
1958;DHT22;979;51.076;13.748;2023-11-19T07:04:06;8.10;76.60
1958;DHT22;979;51.076;13.748;2023-11-19T07:10:48;8.20;76.70
1958;DHT22;979;51.076;13.748;2023-11-19T07:13:17;8.30;76.90
1958;DHT22;979;51.076;13.748;2023-11-19T07:16:02;8.30;77.30
1958;DHT22;979;51.076;13.748;2023-11-19T07:18:45;8.30;77.20
1958;DHT22;979;51.076;13.748;2023-11-19T07:21:13;8.40;77.10
1958;DHT22;979;51.076;13.748;2023-11-19T07:23:41;8.60;77.30
1958;DHT22;979;51.076;13.748;2023-11-19T07:26:09;8.40;77.10
1958;DHT22;979;51.076;13.748;2023-11-19T07:28:38;8.50;77.10
1958;DHT22;979;51.076;13.748;2023-11-19T07:31:06;8.50;77.10
1958;DHT22;979;51.076;13.748;2023-11-19T07:33:35;8.50;77.10
1958;DHT22;979;51.076;13.748;2023-11-19T07:36:06;8.60;77.20
1958;DHT22;979;51.076;13.748;2023-11-19T07:38:37;8.70;77.20
1958;DHT22;979;51.076;13.748;2023-11-19T07:41:06;8.70;77.20
1958;DHT22;979;51.076;13.748;2023-11-19T07:43:36;9.00;77.60
1958;DHT22;979;51.076;13.748;2023-11-19T07:46:09;9.00;77.50
1958;DHT22;979;51.076;13.748;2023-11-19T07:48:38;8.90;77.30
1958;DHT22;979;51.076;13.748;2023-11-19T07:51:08;8.90;77.50
1958;DHT22;979;51.076;13.748;2023-11-19T07:53:36;9.00;77.50
1958;DHT22;979;51.076;13.748;2023-11-19T07:56:06;9.00;77.50
1958;DHT22;979;51.076;13.748;2023-11-19T07:58:34;9.10;77.50
1958;DHT22;979;51.076;13.748;2023-11-19T08:01:04;9.20;77.60
1958;DHT22;979;51.076;13.748;2023-11-19T08:03:46;9.20;77.50
1958;DHT22;979;51.076;13.748;2023-11-19T08:06:19;9.20;77.50
1958;DHT22;979;51.076;13.748;2023-11-19T08:08:56;9.30;77.50
1958;DHT22;979;51.076;13.748;2023-11-19T08:11:42;9.50;77.90
1958;DHT22;979;51.076;13.748;2023-11-19T08:35:56;9.40;77.90
1958;DHT22;979;51.076;13.748;2023-11-19T08:38:29;9.30;78.40
1958;DHT22;979;51.076;13.748;2023-11-19T08:41:22;9.40;78.60
1958;DHT22;979;51.076;13.748;2023-11-19T08:43:56;9.30;78.40
1958;DHT22;979;51.076;13.748;2023-11-19T08:46:38;9.40;78.90
1958;DHT22;979;51.076;13.748;2023-11-19T08:49:16;9.50;79.00
1958;DHT22;979;51.076;13.748;2023-11-19T09:14:18;10.70;78.90
1958;DHT22;979;51.076;13.748;2023-11-19T09:16:58;10.90;79.60
1958;DHT22;979;51.076;13.748;2023-11-19T09:19:27;10.90;78.90
1958;DHT22;979;51.076;13.748;2023-11-19T09:21:59;11.10;79.10
1958;DHT22;979;51.076;13.748;2023-11-19T09:24:40;11.00;79.10
1958;DHT22;979;51.076;13.748;2023-11-19T09:27:23;11.30;79.20
1958;DHT22;979;51.076;13.748;2023-11-19T09:30:12;11.40;79.20
1958;DHT22;979;51.076;13.748;2023-11-19T09:33:08;11.40;78.70
1958;DHT22;979;51.076;13.748;2023-11-19T09:35:43;11.60;79.10
1958;DHT22;979;51.076;13.748;2023-11-19T09:38:12;11.60;79.10
1958;DHT22;979;51.076;13.748;2023-11-19T09:40:40;11.60;79.40
1958;DHT22;979;51.076;13.748;2023-11-19T09:43:09;11.80;79.90
1958;DHT22;979;51.076;13.748;2023-11-19T09:45:47;11.90;80.10
1958;DHT22;979;51.076;13.748;2023-11-19T09:48:17;12.00;80.20
1958;DHT22;979;51.076;13.748;2023-11-19T09:50:49;12.10;80.40
1958;DHT22;979;51.076;13.748;2023-11-19T09:53:18;12.20;80.60
1958;DHT22;979;51.076;13.748;2023-11-19T09:55:48;12.30;80.90
1958;DHT22;979;51.076;13.748;2023-11-19T09:58:17;12.50;81.00
1958;DHT22;979;51.076;13.748;2023-11-19T10:00:47;12.60;81.00
1958;DHT22;979;51.076;13.748;2023-11-19T10:03:36;12.70;81.00
1958;DHT22;979;51.076;13.748;2023-11-19T10:06:07;12.80;81.00
1958;DHT22;979;51.076;13.748;2023-11-19T10:08:37;12.90;81.00
1958;DHT22;979;51.076;13.748;2023-11-19T10:11:06;13.00;81.30
1958;DHT22;979;51.076;13.748;2023-11-19T10:13:35;13.10;81.10
1958;DHT22;979;51.076;13.748;2023-11-19T10:16:09;13.10;80.90
1958;DHT22;979;51.076;13.748;2023-11-19T10:18:44;13.20;80.90
1958;DHT22;979;51.076;13.748;2023-11-19T10:21:13;13.20;80.90
1958;DHT22;979;51.076;13.748;2023-11-19T10:23:51;13.30;81.10
1958;DHT22;979;51.076;13.748;2023-11-19T10:26:20;13.50;81.00
1958;DHT22;979;51.076;13.748;2023-11-19T10:28:49;13.60;81.00
1958;DHT22;979;51.076;13.748;2023-11-19T10:31:20;13.70;80.80
1958;DHT22;979;51.076;13.748;2023-11-19T10:33:52;13.80;80.60
1958;DHT22;979;51.076;13.748;2023-11-19T10:36:22;14.00;80.50
1958;DHT22;979;51.076;13.748;2023-11-19T10:38:55;14.10;80.40
1958;DHT22;979;51.076;13.748;2023-11-19T10:41:27;14.10;79.90
1958;DHT22;979;51.076;13.748;2023-11-19T10:43:56;14.20;79.90
1958;DHT22;979;51.076;13.748;2023-11-19T10:46:53;14.30;80.20
1958;DHT22;979;51.076;13.748;2023-11-19T10:49:38;14.30;79.70
1958;DHT22;979;51.076;13.748;2023-11-19T10:52:18;14.40;79.70
1958;DHT22;979;51.076;13.748;2023-11-19T10:55:02;14.50;79.40
1958;DHT22;979;51.076;13.748;2023-11-19T10:58:06;14.60;79.70
1958;DHT22;979;51.076;13.748;2023-11-19T11:00:44;14.60;79.20
1958;DHT22;979;51.076;13.748;2023-11-19T11:03:40;14.70;79.70
1958;DHT22;979;51.076;13.748;2023-11-19T11:06:29;14.80;79.20
1958;DHT22;979;51.076;13.748;2023-11-19T11:09:07;14.80;79.20
1958;DHT22;979;51.076;13.748;2023-11-19T11:11:54;14.90;79.10
1958;DHT22;979;51.076;13.748;2023-11-19T11:14:44;14.80;78.70
1958;DHT22;979;51.076;13.748;2023-11-19T11:17:34;14.90;78.80
1958;DHT22;979;51.076;13.748;2023-11-19T11:20:35;14.90;79.00
1958;DHT22;979;51.076;13.748;2023-11-19T11:23:39;14.90;78.60
1958;DHT22;979;51.076;13.748;2023-11-19T11:26:48;14.90;78.30
1958;DHT22;979;51.076;13.748;2023-11-19T11:29:28;14.90;78.20
1958;DHT22;979;51.076;13.748;2023-11-19T11:32:14;15.00;78.20
1958;DHT22;979;51.076;13.748;2023-11-19T11:35:08;15.00;77.80
1958;DHT22;979;51.076;13.748;2023-11-19T11:37:44;14.90;77.50
1958;DHT22;979;51.076;13.748;2023-11-19T11:40:14;14.90;77.60
1958;DHT22;979;51.076;13.748;2023-11-19T11:42:45;14.90;77.60
1958;DHT22;979;51.076;13.748;2023-11-19T11:45:16;14.90;77.60
1958;DHT22;979;51.076;13.748;2023-11-19T11:48:21;14.90;77.50
1958;DHT22;979;51.076;13.748;2023-11-19T11:51:09;14.80;77.30
1958;DHT22;979;51.076;13.748;2023-11-19T11:53:47;15.10;78.80
1958;DHT22;979;51.076;13.748;2023-11-19T11:56:23;16.00;79.70
1958;DHT22;979;51.076;13.748;2023-11-19T11:59:18;17.30;78.60
1958;DHT22;979;51.076;13.748;2023-11-19T12:02:03;18.60;76.90
1958;DHT22;979;51.076;13.748;2023-11-19T12:04:47;20.10;75.30
1958;DHT22;979;51.076;13.748;2023-11-19T12:07:54;21.20;72.60
1958;DHT22;979;51.076;13.748;2023-11-19T12:10:37;21.80;69.70
1958;DHT22;979;51.076;13.748;2023-11-19T12:13:14;22.20;68.90
1958;DHT22;979;51.076;13.748;2023-11-19T12:16:08;21.90;67.00
1958;DHT22;979;51.076;13.748;2023-11-19T12:18:44;21.20;65.90
1958;DHT22;979;51.076;13.748;2023-11-19T12:21:27;20.40;66.30
1958;DHT22;979;51.076;13.748;2023-11-19T12:23:59;19.60;66.30
1958;DHT22;979;51.076;13.748;2023-11-19T12:26:37;19.30;66.70
1958;DHT22;979;51.076;13.748;2023-11-19T12:29:06;18.80;66.80
1958;DHT22;979;51.076;13.748;2023-11-19T12:31:36;19.10;68.90
1958;DHT22;979;51.076;13.748;2023-11-19T12:34:08;20.00;68.90
1958;DHT22;979;51.076;13.748;2023-11-19T12:36:42;20.90;67.40
1958;DHT22;979;51.076;13.748;2023-11-19T12:39:10;21.80;66.50
1958;DHT22;979;51.076;13.748;2023-11-19T12:41:53;22.90;66.20
1958;DHT22;979;51.076;13.748;2023-11-19T12:44:22;24.00;62.70
1958;DHT22;979;51.076;13.748;2023-11-19T12:47:03;24.40;61.50
1958;DHT22;979;51.076;13.748;2023-11-19T12:49:33;24.70;59.90
1958;DHT22;979;51.076;13.748;2023-11-19T12:52:01;25.00;59.70
1958;DHT22;979;51.076;13.748;2023-11-19T12:54:34;25.30;59.70
1958;DHT22;979;51.076;13.748;2023-11-19T12:57:05;26.00;58.90
1958;DHT22;979;51.076;13.748;2023-11-19T12:59:33;26.00;57.10
1958;DHT22;979;51.076;13.748;2023-11-19T13:02:02;25.60;57.10
1958;DHT22;979;51.076;13.748;2023-11-19T13:04:35;25.50;57.00
1958;DHT22;979;51.076;13.748;2023-11-19T13:07:04;25.50;56.70
1958;DHT22;979;51.076;13.748;2023-11-19T13:09:33;25.50;57.40
1958;DHT22;979;51.076;13.748;2023-11-19T13:12:14;25.70;56.70
1958;DHT22;979;51.076;13.748;2023-11-19T13:14:43;25.80;55.30
1958;DHT22;979;51.076;13.748;2023-11-19T13:17:14;25.80;55.20
1958;DHT22;979;51.076;13.748;2023-11-19T13:19:42;25.70;55.80
1958;DHT22;979;51.076;13.748;2023-11-19T13:22:12;26.00;56.10
1958;DHT22;979;51.076;13.748;2023-11-19T13:24:44;26.40;55.50
1958;DHT22;979;51.076;13.748;2023-11-19T13:27:14;26.20;54.40
1958;DHT22;979;51.076;13.748;2023-11-19T13:29:43;25.40;54.80
1958;DHT22;979;51.076;13.748;2023-11-19T13:32:11;24.40;54.70
1958;DHT22;979;51.076;13.748;2023-11-19T13:34:44;23.30;54.90
1958;DHT22;979;51.076;13.748;2023-11-19T13:37:13;22.40;55.40
1958;DHT22;979;51.076;13.748;2023-11-19T13:39:42;21.40;55.40
1958;DHT22;979;51.076;13.748;2023-11-19T13:42:10;20.50;55.70
1958;DHT22;979;51.076;13.748;2023-11-19T13:44:42;19.70;56.20
1958;DHT22;979;51.076;13.748;2023-11-19T13:47:11;19.00;56.90
1958;DHT22;979;51.076;13.748;2023-11-19T13:49:40;18.50;57.30
1958;DHT22;979;51.076;13.748;2023-11-19T13:52:09;18.10;57.70
1958;DHT22;979;51.076;13.748;2023-11-19T13:54:38;17.70;58.30
1958;DHT22;979;51.076;13.748;2023-11-19T13:57:07;17.60;58.70
1958;DHT22;979;51.076;13.748;2023-11-19T13:59:41;17.50;59.00
1958;DHT22;979;51.076;13.748;2023-11-19T14:02:10;17.40;59.10
1958;DHT22;979;51.076;13.748;2023-11-19T14:04:38;17.30;59.20
1958;DHT22;979;51.076;13.748;2023-11-19T14:07:07;17.20;59.30
1958;DHT22;979;51.076;13.748;2023-11-19T14:09:37;17.20;59.50
1958;DHT22;979;51.076;13.748;2023-11-19T14:12:08;17.20;59.50
1958;DHT22;979;51.076;13.748;2023-11-19T14:14:36;17.10;59.40
1958;DHT22;979;51.076;13.748;2023-11-19T14:17:07;17.10;59.50
1958;DHT22;979;51.076;13.748;2023-11-19T14:19:41;17.00;59.20
1958;DHT22;979;51.076;13.748;2023-11-19T14:22:09;16.90;59.90
1958;DHT22;979;51.076;13.748;2023-11-19T14:24:37;16.80;59.30
1958;DHT22;979;51.076;13.748;2023-11-19T14:27:09;16.70;59.40
1958;DHT22;979;51.076;13.748;2023-11-19T14:29:38;16.60;59.40
1958;DHT22;979;51.076;13.748;2023-11-19T14:32:08;16.50;59.40
1958;DHT22;979;51.076;13.748;2023-11-19T14:34:36;16.50;59.70
1958;DHT22;979;51.076;13.748;2023-11-19T14:37:05;16.40;59.70
1958;DHT22;979;51.076;13.748;2023-11-19T14:39:33;16.30;59.80
1958;DHT22;979;51.076;13.748;2023-11-19T14:42:02;16.10;59.90
1958;DHT22;979;51.076;13.748;2023-11-19T14:44:34;16.10;60.10
1958;DHT22;979;51.076;13.748;2023-11-19T14:47:03;16.00;60.30
1958;DHT22;979;51.076;13.748;2023-11-19T14:49:34;16.00;60.50
1958;DHT22;979;51.076;13.748;2023-11-19T14:52:04;15.90;60.60
1958;DHT22;979;51.076;13.748;2023-11-19T14:54:35;15.80;60.70
1958;DHT22;979;51.076;13.748;2023-11-19T14:57:06;15.80;60.90
1958;DHT22;979;51.076;13.748;2023-11-19T14:59:35;15.80;61.10
1958;DHT22;979;51.076;13.748;2023-11-19T15:02:37;15.80;61.30
1958;DHT22;979;51.076;13.748;2023-11-19T15:05:36;15.90;61.50
1958;DHT22;979;51.076;13.748;2023-11-19T15:08:11;15.80;61.60
1958;DHT22;979;51.076;13.748;2023-11-19T15:10:47;15.50;62.10
1958;DHT22;979;51.076;13.748;2023-11-19T15:13:35;15.40;62.40
1958;DHT22;979;51.076;13.748;2023-11-19T15:27:08;15.00;62.90
1958;DHT22;979;51.076;13.748;2023-11-19T15:34:06;14.60;63.50
1958;DHT22;979;51.076;13.748;2023-11-19T15:40:17;14.50;64.00
1958;DHT22;979;51.076;13.748;2023-11-19T15:42:58;14.20;64.30
1958;DHT22;979;51.076;13.748;2023-11-19T15:45:42;14.10;63.90
1958;DHT22;979;51.076;13.748;2023-11-19T15:58:30;14.10;64.40
1958;DHT22;979;51.076;13.748;2023-11-19T16:01:04;14.00;64.50
1958;DHT22;979;51.076;13.748;2023-11-19T16:03:36;14.20;65.00
1958;DHT22;979;51.076;13.748;2023-11-19T16:06:31;14.00;64.80
1958;DHT22;979;51.076;13.748;2023-11-19T16:20:28;13.70;64.80
1958;DHT22;979;51.076;13.748;2023-11-19T16:23:02;13.70;65.00
1958;DHT22;979;51.076;13.748;2023-11-19T16:25:33;13.70;64.90
1958;DHT22;979;51.076;13.748;2023-11-19T16:28:04;13.70;64.90
1958;DHT22;979;51.076;13.748;2023-11-19T16:30:34;13.60;64.90
1958;DHT22;979;51.076;13.748;2023-11-19T16:43:36;13.40;64.90
1958;DHT22;979;51.076;13.748;2023-11-19T16:46:05;13.40;65.10
1958;DHT22;979;51.076;13.748;2023-11-19T16:48:37;13.40;65.20
1958;DHT22;979;51.076;13.748;2023-11-19T16:51:10;13.40;65.20
1958;DHT22;979;51.076;13.748;2023-11-19T16:53:44;13.50;65.20
1958;DHT22;979;51.076;13.748;2023-11-19T16:56:13;13.40;65.30
1958;DHT22;979;51.076;13.748;2023-11-19T16:58:43;13.40;65.40
1958;DHT22;979;51.076;13.748;2023-11-19T17:01:13;13.40;65.40
1958;DHT22;979;51.076;13.748;2023-11-19T17:03:42;13.40;65.30
1958;DHT22;979;51.076;13.748;2023-11-19T17:06:11;13.40;65.30
1958;DHT22;979;51.076;13.748;2023-11-19T17:08:40;13.30;65.40
1958;DHT22;979;51.076;13.748;2023-11-19T17:11:11;13.40;65.50
1958;DHT22;979;51.076;13.748;2023-11-19T17:13:40;13.30;65.60
1958;DHT22;979;51.076;13.748;2023-11-19T17:16:10;13.10;65.50
1958;DHT22;979;51.076;13.748;2023-11-19T17:18:39;13.30;65.80
1958;DHT22;979;51.076;13.748;2023-11-19T17:21:09;13.20;65.90
1958;DHT22;979;51.076;13.748;2023-11-19T17:23:38;13.20;66.20
1958;DHT22;979;51.076;13.748;2023-11-19T17:26:07;13.20;66.50
1958;DHT22;979;51.076;13.748;2023-11-19T17:28:35;13.30;66.60
1958;DHT22;979;51.076;13.748;2023-11-19T17:31:06;13.30;66.80
1958;DHT22;979;51.076;13.748;2023-11-19T17:33:36;13.30;66.50
1958;DHT22;979;51.076;13.748;2023-11-19T17:36:05;13.30;66.50
1958;DHT22;979;51.076;13.748;2023-11-19T17:38:40;13.30;66.50
1958;DHT22;979;51.076;13.748;2023-11-19T17:41:34;13.30;66.60
1958;DHT22;979;51.076;13.748;2023-11-19T17:44:02;13.20;66.60
1958;DHT22;979;51.076;13.748;2023-11-19T17:46:31;13.20;66.90
1958;DHT22;979;51.076;13.748;2023-11-19T17:49:01;13.20;67.00
1958;DHT22;979;51.076;13.748;2023-11-19T17:51:30;13.30;67.60
1958;DHT22;979;51.076;13.748;2023-11-19T17:53:58;13.30;67.30
1958;DHT22;979;51.076;13.748;2023-11-19T17:56:29;13.30;67.10
1958;DHT22;979;51.076;13.748;2023-11-19T17:58:59;13.30;67.30
1958;DHT22;979;51.076;13.748;2023-11-19T18:01:27;13.40;67.10
1958;DHT22;979;51.076;13.748;2023-11-19T18:03:58;13.30;67.00
1958;DHT22;979;51.076;13.748;2023-11-19T18:06:30;13.40;67.40
1958;DHT22;979;51.076;13.748;2023-11-19T18:09:01;13.40;67.20
1958;DHT22;979;51.076;13.748;2023-11-19T18:11:36;13.40;67.10
1958;DHT22;979;51.076;13.748;2023-11-19T18:14:12;13.50;67.20
1958;DHT22;979;51.076;13.748;2023-11-19T18:16:41;13.40;66.80
1958;DHT22;979;51.076;13.748;2023-11-19T18:19:11;13.50;67.00
1958;DHT22;979;51.076;13.748;2023-11-19T18:21:42;13.40;66.80
1958;DHT22;979;51.076;13.748;2023-11-19T18:24:11;13.40;66.80
1958;DHT22;979;51.076;13.748;2023-11-19T18:26:41;13.40;66.60
1958;DHT22;979;51.076;13.748;2023-11-19T18:29:11;13.40;66.70
1958;DHT22;979;51.076;13.748;2023-11-19T18:31:43;13.40;66.80
1958;DHT22;979;51.076;13.748;2023-11-19T18:34:11;13.20;66.40
1958;DHT22;979;51.076;13.748;2023-11-19T18:36:42;13.30;66.60
1958;DHT22;979;51.076;13.748;2023-11-19T18:46:44;13.30;66.50
1958;DHT22;979;51.076;13.748;2023-11-19T18:53:41;13.10;66.30
1958;DHT22;979;51.076;13.748;2023-11-19T19:03:32;12.80;66.20
1958;DHT22;979;51.076;13.748;2023-11-19T19:07:01;12.90;66.70
1958;DHT22;979;51.076;13.748;2023-11-19T19:10:13;12.90;66.60
1958;DHT22;979;51.076;13.748;2023-11-19T19:17:03;12.90;67.90
1958;DHT22;979;51.076;13.748;2023-11-19T19:19:32;12.90;67.70
1958;DHT22;979;51.076;13.748;2023-11-19T19:22:00;12.90;67.60
1958;DHT22;979;51.076;13.748;2023-11-19T19:24:29;12.90;67.40
1958;DHT22;979;51.076;13.748;2023-11-19T19:26:58;13.00;67.50
1958;DHT22;979;51.076;13.748;2023-11-19T19:29:27;13.00;67.30
1958;DHT22;979;51.076;13.748;2023-11-19T19:31:55;13.10;67.40
1958;DHT22;979;51.076;13.748;2023-11-19T19:34:25;13.10;67.20
1958;DHT22;979;51.076;13.748;2023-11-19T19:36:55;13.20;67.30
1958;DHT22;979;51.076;13.748;2023-11-19T19:39:24;13.20;67.30